TTPP/POS METAR and TAF weather

Enter ICAO airport designator
Station Type Date Time Source
TTPP METAR 2018/12/17 03:00 UTC NOAA

TTPP 170300Z 12004KT 9999 SCT015 SCT038 23/22 Q1016 NOSIG


Station Type Date Time Source
TTPP Decoded METAR 2018/12/17 03:00 UTC NOAA

Piarco International Airport, Trinidad, Trinidad and Tobago (TTPP) 10-37N 061-21W 15M
Dec 16, 2018 - 10:00 PM EST / 2018.12.17 0300 UTC
Wind: from the ESE (120 degrees) at 5 MPH (4 KT):0
Visibility: greater than 7 mile(s):0
Sky conditions: partly cloudy
Temperature: 73 F (23 C)
Dew Point: 71 F (22 C)
Relative Humidity: 94%
Pressure (altimeter): 30.00 in. Hg (1016 hPa)
ob: TTPP 170300Z 12004KT 9999 SCT015 SCT038 23/22 Q1016 NOSIG
cycle: 3

Station Type Date Time Source
TTPP TAF 2018/12/16 18:30 UTC NOAA

TAF TTPP 161600Z 1618/1718 09015G25KT 9999 SCT018
TEMPO 1618/1621 5000 SHRA/VCSH BKN015
BECMG 1700/1702 09005KT SCT015 PROB30
TEMPO 1708/1712 5000 SHRA/VCSH BKN015
BECMG 1711/1713 09015KT SCT018


Example: see airport list